sensor_id;sensor_type;location;lat;lon;timestamp;P1;durP1;ratioP1;P2;durP2;ratioP2
13566;SDS011;6855;48.112;11.298;2022-07-29T00:00:15;1.90;;;1.80;;
13566;SDS011;6855;48.112;11.298;2022-07-29T00:02:42;1.50;;;1.40;;
13566;SDS011;6855;48.112;11.298;2022-07-29T00:05:10;2.30;;;1.93;;
13566;SDS011;6855;48.112;11.298;2022-07-29T00:07:38;2.10;;;1.67;;
13566;SDS011;6855;48.112;11.298;2022-07-29T00:10:06;3.20;;;1.87;;
13566;SDS011;6855;48.112;11.298;2022-07-29T00:12:33;2.13;;;1.67;;
13566;SDS011;6855;48.112;11.298;2022-07-29T00:15:00;1.70;;;1.57;;
13566;SDS011;6855;48.112;11.298;2022-07-29T00:17:29;2.47;;;1.60;;
13566;SDS011;6855;48.112;11.298;2022-07-29T00:19:56;1.60;;;1.50;;
13566;SDS011;6855;48.112;11.298;2022-07-29T00:22:23;5.50;;;1.90;;
13566;SDS011;6855;48.112;11.298;2022-07-29T00:24:51;2.80;;;1.77;;
13566;SDS011;6855;48.112;11.298;2022-07-29T00:27:18;2.00;;;1.50;;
13566;SDS011;6855;48.112;11.298;2022-07-29T00:29:45;4.13;;;1.80;;
13566;SDS011;6855;48.112;11.298;2022-07-29T00:32:12;2.30;;;1.80;;
13566;SDS011;6855;48.112;11.298;2022-07-29T00:34:41;2.73;;;1.80;;
13566;SDS011;6855;48.112;11.298;2022-07-29T00:37:26;1.67;;;1.40;;
13566;SDS011;6855;48.112;11.298;2022-07-29T00:39:53;2.10;;;1.30;;
13566;SDS011;6855;48.112;11.298;2022-07-29T00:42:20;1.40;;;1.30;;
13566;SDS011;6855;48.112;11.298;2022-07-29T00:44:48;2.20;;;1.53;;
13566;SDS011;6855;48.112;11.298;2022-07-29T00:47:15;1.80;;;1.57;;
13566;SDS011;6855;48.112;11.298;2022-07-29T00:49:43;1.53;;;1.43;;
13566;SDS011;6855;48.112;11.298;2022-07-29T00:52:11;2.50;;;1.73;;
13566;SDS011;6855;48.112;11.298;2022-07-29T00:54:39;1.70;;;1.57;;
13566;SDS011;6855;48.112;11.298;2022-07-29T00:57:06;1.40;;;1.30;;
13566;SDS011;6855;48.112;11.298;2022-07-29T00:59:34;1.97;;;1.40;;
13566;SDS011;6855;48.112;11.298;2022-07-29T01:02:01;2.53;;;1.67;;
13566;SDS011;6855;48.112;11.298;2022-07-29T01:04:28;1.40;;;1.30;;
13566;SDS011;6855;48.112;11.298;2022-07-29T01:06:57;2.63;;;1.30;;
13566;SDS011;6855;48.112;11.298;2022-07-29T01:09:25;1.20;;;1.00;;
13566;SDS011;6855;48.112;11.298;2022-07-29T01:11:52;2.30;;;1.60;;
13566;SDS011;6855;48.112;11.298;2022-07-29T01:14:20;2.50;;;1.10;;
13566;SDS011;6855;48.112;11.298;2022-07-29T01:16:50;1.37;;;1.27;;
13566;SDS011;6855;48.112;11.298;2022-07-29T01:19:25;1.53;;;1.43;;
13566;SDS011;6855;48.112;11.298;2022-07-29T01:21:59;1.83;;;1.37;;
13566;SDS011;6855;48.112;11.298;2022-07-29T01:24:39;2.33;;;1.70;;
13566;SDS011;6855;48.112;11.298;2022-07-29T01:27:16;1.50;;;1.40;;
13566;SDS011;6855;48.112;11.298;2022-07-29T01:29:49;1.33;;;1.23;;
13566;SDS011;6855;48.112;11.298;2022-07-29T01:32:21;1.90;;;1.37;;
13566;SDS011;6855;48.112;11.298;2022-07-29T01:34:50;1.53;;;1.27;;
13566;SDS011;6855;48.112;11.298;2022-07-29T01:37:20;1.50;;;1.20;;
13566;SDS011;6855;48.112;11.298;2022-07-29T01:39:48;3.70;;;1.43;;
13566;SDS011;6855;48.112;11.298;2022-07-29T01:42:19;1.43;;;1.07;;
13566;SDS011;6855;48.112;11.298;2022-07-29T01:44:50;1.63;;;1.10;;
13566;SDS011;6855;48.112;11.298;2022-07-29T01:47:19;1.83;;;1.27;;
13566;SDS011;6855;48.112;11.298;2022-07-29T01:49:48;2.30;;;1.30;;
13566;SDS011;6855;48.112;11.298;2022-07-29T01:52:19;1.27;;;1.17;;
13566;SDS011;6855;48.112;11.298;2022-07-29T01:54:49;1.93;;;1.40;;
13566;SDS011;6855;48.112;11.298;2022-07-29T01:57:18;2.90;;;1.10;;
13566;SDS011;6855;48.112;11.298;2022-07-29T01:59:46;1.60;;;1.10;;
13566;SDS011;6855;48.112;11.298;2022-07-29T02:02:16;1.23;;;1.13;;
13566;SDS011;6855;48.112;11.298;2022-07-29T02:04:45;1.67;;;1.20;;
13566;SDS011;6855;48.112;11.298;2022-07-29T02:07:15;2.47;;;1.17;;
13566;SDS011;6855;48.112;11.298;2022-07-29T02:09:43;2.00;;;1.40;;
13566;SDS011;6855;48.112;11.298;2022-07-29T02:12:12;2.00;;;1.30;;
13566;SDS011;6855;48.112;11.298;2022-07-29T02:14:41;1.30;;;1.20;;
13566;SDS011;6855;48.112;11.298;2022-07-29T02:17:10;1.40;;;1.30;;
13566;SDS011;6855;48.112;11.298;2022-07-29T02:19:40;1.40;;;1.30;;
13566;SDS011;6855;48.112;11.298;2022-07-29T02:22:10;1.20;;;1.10;;
13566;SDS011;6855;48.112;11.298;2022-07-29T02:24:38;1.40;;;1.20;;
13566;SDS011;6855;48.112;11.298;2022-07-29T02:27:05;1.97;;;1.30;;
13566;SDS011;6855;48.112;11.298;2022-07-29T02:29:34;1.93;;;1.30;;
13566;SDS011;6855;48.112;11.298;2022-07-29T02:32:02;1.60;;;1.10;;
13566;SDS011;6855;48.112;11.298;2022-07-29T02:34:30;2.20;;;1.30;;
13566;SDS011;6855;48.112;11.298;2022-07-29T02:36:59;2.63;;;1.20;;
13566;SDS011;6855;48.112;11.298;2022-07-29T02:39:26;1.87;;;1.30;;
13566;SDS011;6855;48.112;11.298;2022-07-29T02:41:55;2.70;;;1.33;;
13566;SDS011;6855;48.112;11.298;2022-07-29T02:44:24;1.83;;;1.10;;
13566;SDS011;6855;48.112;11.298;2022-07-29T02:46:53;1.50;;;1.40;;
13566;SDS011;6855;48.112;11.298;2022-07-29T02:49:25;1.70;;;1.57;;
13566;SDS011;6855;48.112;11.298;2022-07-29T02:51:57;1.80;;;1.40;;
13566;SDS011;6855;48.112;11.298;2022-07-29T02:54:38;1.60;;;1.10;;
13566;SDS011;6855;48.112;11.298;2022-07-29T02:57:09;2.27;;;1.00;;
13566;SDS011;6855;48.112;11.298;2022-07-29T02:59:37;6.20;;;1.40;;
13566;SDS011;6855;48.112;11.298;2022-07-29T03:02:05;1.30;;;1.20;;
13566;SDS011;6855;48.112;11.298;2022-07-29T03:04:33;1.57;;;1.20;;
13566;SDS011;6855;48.112;11.298;2022-07-29T03:07:01;1.20;;;1.10;;
13566;SDS011;6855;48.112;11.298;2022-07-29T03:09:30;1.20;;;1.10;;
13566;SDS011;6855;48.112;11.298;2022-07-29T03:11:57;1.40;;;1.30;;
13566;SDS011;6855;48.112;11.298;2022-07-29T03:14:24;3.37;;;1.30;;
13566;SDS011;6855;48.112;11.298;2022-07-29T03:16:52;3.33;;;1.40;;
13566;SDS011;6855;48.112;11.298;2022-07-29T03:19:19;1.80;;;1.40;;
13566;SDS011;6855;48.112;11.298;2022-07-29T03:21:47;1.30;;;1.20;;
13566;SDS011;6855;48.112;11.298;2022-07-29T03:24:24;1.50;;;1.40;;
13566;SDS011;6855;48.112;11.298;2022-07-29T03:26:53;1.30;;;1.20;;
13566;SDS011;6855;48.112;11.298;2022-07-29T03:29:21;1.27;;;1.17;;
13566;SDS011;6855;48.112;11.298;2022-07-29T03:31:48;1.90;;;1.37;;
13566;SDS011;6855;48.112;11.298;2022-07-29T03:34:15;2.10;;;1.20;;
13566;SDS011;6855;48.112;11.298;2022-07-29T03:36:42;1.57;;;1.47;;
13566;SDS011;6855;48.112;11.298;2022-07-29T03:39:10;1.53;;;1.10;;
13566;SDS011;6855;48.112;11.298;2022-07-29T03:41:39;1.33;;;1.20;;
13566;SDS011;6855;48.112;11.298;2022-07-29T03:44:09;1.80;;;1.10;;
13566;SDS011;6855;48.112;11.298;2022-07-29T03:46:36;2.43;;;1.20;;
13566;SDS011;6855;48.112;11.298;2022-07-29T03:49:04;1.80;;;1.20;;
13566;SDS011;6855;48.112;11.298;2022-07-29T03:51:33;1.20;;;1.10;;
13566;SDS011;6855;48.112;11.298;2022-07-29T03:54:00;1.57;;;1.30;;
13566;SDS011;6855;48.112;11.298;2022-07-29T03:56:28;1.17;;;1.10;;
13566;SDS011;6855;48.112;11.298;2022-07-29T03:58:56;1.70;;;1.40;;
13566;SDS011;6855;48.112;11.298;2022-07-29T04:01:25;3.23;;;1.40;;
13566;SDS011;6855;48.112;11.298;2022-07-29T04:03:52;1.13;;;1.00;;
13566;SDS011;6855;48.112;11.298;2022-07-29T04:06:20;1.40;;;1.13;;
13566;SDS011;6855;48.112;11.298;2022-07-29T04:08:47;1.47;;;0.90;;
13566;SDS011;6855;48.112;11.298;2022-07-29T04:11:14;2.97;;;1.43;;
13566;SDS011;6855;48.112;11.298;2022-07-29T04:13:41;4.57;;;1.20;;
13566;SDS011;6855;48.112;11.298;2022-07-29T04:16:09;1.40;;;0.83;;
13566;SDS011;6855;48.112;11.298;2022-07-29T04:18:37;1.03;;;0.90;;
13566;SDS011;6855;48.112;11.298;2022-07-29T04:21:04;2.70;;;1.20;;
13566;SDS011;6855;48.112;11.298;2022-07-29T04:23:32;2.43;;;1.50;;
13566;SDS011;6855;48.112;11.298;2022-07-29T04:25:59;1.40;;;1.30;;
13566;SDS011;6855;48.112;11.298;2022-07-29T04:28:26;1.30;;;1.20;;
13566;SDS011;6855;48.112;11.298;2022-07-29T04:30:53;2.30;;;1.20;;
13566;SDS011;6855;48.112;11.298;2022-07-29T04:33:21;1.40;;;1.30;;
13566;SDS011;6855;48.112;11.298;2022-07-29T04:35:49;2.80;;;1.30;;
13566;SDS011;6855;48.112;11.298;2022-07-29T04:38:16;5.97;;;1.50;;
13566;SDS011;6855;48.112;11.298;2022-07-29T04:40:44;3.70;;;1.37;;
13566;SDS011;6855;48.112;11.298;2022-07-29T04:43:11;2.10;;;1.13;;
13566;SDS011;6855;48.112;11.298;2022-07-29T04:45:38;1.30;;;1.20;;
13566;SDS011;6855;48.112;11.298;2022-07-29T04:48:05;1.20;;;1.10;;
13566;SDS011;6855;48.112;11.298;2022-07-29T04:50:32;6.87;;;1.40;;
13566;SDS011;6855;48.112;11.298;2022-07-29T04:53:01;6.30;;;1.20;;
13566;SDS011;6855;48.112;11.298;2022-07-29T04:55:28;1.83;;;1.30;;
13566;SDS011;6855;48.112;11.298;2022-07-29T04:57:55;1.20;;;1.10;;
13566;SDS011;6855;48.112;11.298;2022-07-29T05:00:22;1.47;;;1.10;;
13566;SDS011;6855;48.112;11.298;2022-07-29T05:02:50;1.60;;;1.50;;
13566;SDS011;6855;48.112;11.298;2022-07-29T05:05:17;2.30;;;1.50;;
13566;SDS011;6855;48.112;11.298;2022-07-29T05:07:44;1.50;;;1.40;;
13566;SDS011;6855;48.112;11.298;2022-07-29T05:10:13;1.50;;;1.40;;
13566;SDS011;6855;48.112;11.298;2022-07-29T05:12:40;1.53;;;1.43;;
13566;SDS011;6855;48.112;11.298;2022-07-29T05:15:07;1.20;;;1.10;;
13566;SDS011;6855;48.112;11.298;2022-07-29T05:17:35;1.67;;;1.30;;
13566;SDS011;6855;48.112;11.298;2022-07-29T05:20:02;3.00;;;1.20;;
13566;SDS011;6855;48.112;11.298;2022-07-29T05:22:30;1.80;;;1.47;;
13566;SDS011;6855;48.112;11.298;2022-07-29T05:24:57;2.03;;;1.27;;
13566;SDS011;6855;48.112;11.298;2022-07-29T05:27:25;2.50;;;1.27;;
13566;SDS011;6855;48.112;11.298;2022-07-29T05:29:53;3.17;;;1.40;;
13566;SDS011;6855;48.112;11.298;2022-07-29T05:32:20;1.40;;;1.20;;
13566;SDS011;6855;48.112;11.298;2022-07-29T05:34:47;1.37;;;1.20;;
13566;SDS011;6855;48.112;11.298;2022-07-29T05:37:14;1.33;;;1.17;;
13566;SDS011;6855;48.112;11.298;2022-07-29T05:39:42;1.70;;;1.30;;
13566;SDS011;6855;48.112;11.298;2022-07-29T05:42:09;2.90;;;1.30;;
13566;SDS011;6855;48.112;11.298;2022-07-29T05:44:38;5.40;;;1.30;;
13566;SDS011;6855;48.112;11.298;2022-07-29T05:47:06;4.10;;;1.30;;
13566;SDS011;6855;48.112;11.298;2022-07-29T05:49:33;1.30;;;1.20;;
13566;SDS011;6855;48.112;11.298;2022-07-29T05:52:00;3.73;;;1.20;;
13566;SDS011;6855;48.112;11.298;2022-07-29T05:54:28;2.93;;;1.27;;
13566;SDS011;6855;48.112;11.298;2022-07-29T05:56:55;2.57;;;1.37;;
13566;SDS011;6855;48.112;11.298;2022-07-29T05:59:22;1.97;;;1.50;;
13566;SDS011;6855;48.112;11.298;2022-07-29T06:01:51;1.53;;;1.43;;
13566;SDS011;6855;48.112;11.298;2022-07-29T06:04:19;1.73;;;1.30;;
13566;SDS011;6855;48.112;11.298;2022-07-29T06:06:46;1.67;;;1.50;;
13566;SDS011;6855;48.112;11.298;2022-07-29T06:09:13;4.53;;;1.63;;
13566;SDS011;6855;48.112;11.298;2022-07-29T06:11:41;1.50;;;1.40;;
13566;SDS011;6855;48.112;11.298;2022-07-29T06:14:08;1.73;;;1.63;;
13566;SDS011;6855;48.112;11.298;2022-07-29T06:16:35;1.60;;;1.50;;
13566;SDS011;6855;48.112;11.298;2022-07-29T06:19:04;1.87;;;1.40;;
13566;SDS011;6855;48.112;11.298;2022-07-29T06:21:31;1.50;;;1.40;;
13566;SDS011;6855;48.112;11.298;2022-07-29T06:23:58;2.97;;;1.40;;
13566;SDS011;6855;48.112;11.298;2022-07-29T06:26:25;1.70;;;1.60;;
13566;SDS011;6855;48.112;11.298;2022-07-29T06:28:53;3.73;;;1.60;;
13566;SDS011;6855;48.112;11.298;2022-07-29T06:31:20;3.50;;;1.90;;
13566;SDS011;6855;48.112;11.298;2022-07-29T06:33:47;2.53;;;1.60;;
13566;SDS011;6855;48.112;11.298;2022-07-29T06:36:16;4.73;;;2.10;;
13566;SDS011;6855;48.112;11.298;2022-07-29T06:38:43;1.93;;;1.70;;
13566;SDS011;6855;48.112;11.298;2022-07-29T06:41:10;1.93;;;1.73;;
13566;SDS011;6855;48.112;11.298;2022-07-29T06:43:41;2.00;;;1.80;;
13566;SDS011;6855;48.112;11.298;2022-07-29T06:46:09;1.70;;;1.60;;
13566;SDS011;6855;48.112;11.298;2022-07-29T06:48:37;1.70;;;1.60;;
13566;SDS011;6855;48.112;11.298;2022-07-29T06:51:04;3.03;;;1.80;;
13566;SDS011;6855;48.112;11.298;2022-07-29T06:53:33;1.97;;;1.77;;
13566;SDS011;6855;48.112;11.298;2022-07-29T06:56:01;3.10;;;1.87;;
13566;SDS011;6855;48.112;11.298;2022-07-29T06:58:29;5.33;;;1.80;;
13566;SDS011;6855;48.112;11.298;2022-07-29T07:00:56;1.70;;;1.60;;
13566;SDS011;6855;48.112;11.298;2022-07-29T07:03:24;4.90;;;1.97;;
13566;SDS011;6855;48.112;11.298;2022-07-29T07:05:51;2.40;;;2.07;;
13566;SDS011;6855;48.112;11.298;2022-07-29T07:08:19;1.87;;;1.77;;
13566;SDS011;6855;48.112;11.298;2022-07-29T07:10:49;2.50;;;2.30;;
13566;SDS011;6855;48.112;11.298;2022-07-29T07:13:16;4.53;;;2.10;;
13566;SDS011;6855;48.112;11.298;2022-07-29T07:15:44;3.70;;;1.70;;
13566;SDS011;6855;48.112;11.298;2022-07-29T07:18:13;2.00;;;1.90;;
13566;SDS011;6855;48.112;11.298;2022-07-29T07:20:40;1.90;;;1.63;;
13566;SDS011;6855;48.112;11.298;2022-07-29T07:23:07;2.10;;;1.90;;
13566;SDS011;6855;48.112;11.298;2022-07-29T07:25:35;2.60;;;1.83;;
13566;SDS011;6855;48.112;11.298;2022-07-29T07:28:04;1.70;;;1.60;;
13566;SDS011;6855;48.112;11.298;2022-07-29T07:30:31;1.60;;;1.50;;
13566;SDS011;6855;48.112;11.298;2022-07-29T07:32:59;2.70;;;1.50;;
13566;SDS011;6855;48.112;11.298;2022-07-29T07:35:26;1.30;;;1.20;;
13566;SDS011;6855;48.112;11.298;2022-07-29T07:37:55;4.20;;;2.30;;
13566;SDS011;6855;48.112;11.298;2022-07-29T07:40:22;2.70;;;1.63;;
13566;SDS011;6855;48.112;11.298;2022-07-29T07:42:49;1.97;;;1.87;;
13566;SDS011;6855;48.112;11.298;2022-07-29T07:45:18;1.70;;;1.60;;
13566;SDS011;6855;48.112;11.298;2022-07-29T07:47:45;1.80;;;1.70;;
13566;SDS011;6855;48.112;11.298;2022-07-29T07:50:12;2.23;;;1.70;;
13566;SDS011;6855;48.112;11.298;2022-07-29T07:52:47;2.70;;;1.70;;
13566;SDS011;6855;48.112;11.298;2022-07-29T07:55:15;1.73;;;1.63;;
13566;SDS011;6855;48.112;11.298;2022-07-29T07:57:42;2.43;;;1.90;;
13566;SDS011;6855;48.112;11.298;2022-07-29T08:00:10;2.30;;;1.80;;
13566;SDS011;6855;48.112;11.298;2022-07-29T08:02:39;1.83;;;1.63;;
13566;SDS011;6855;48.112;11.298;2022-07-29T08:05:07;2.53;;;2.30;;
13566;SDS011;6855;48.112;11.298;2022-07-29T08:07:35;2.17;;;2.03;;
13566;SDS011;6855;48.112;11.298;2022-07-29T08:10:03;4.67;;;2.33;;
13566;SDS011;6855;48.112;11.298;2022-07-29T08:12:30;2.47;;;2.37;;
13566;SDS011;6855;48.112;11.298;2022-07-29T08:14:58;2.30;;;2.20;;
13566;SDS011;6855;48.112;11.298;2022-07-29T08:17:25;4.73;;;2.43;;
13566;SDS011;6855;48.112;11.298;2022-07-29T08:19:54;2.23;;;2.03;;
13566;SDS011;6855;48.112;11.298;2022-07-29T08:22:21;2.73;;;2.53;;
13566;SDS011;6855;48.112;11.298;2022-07-29T08:24:48;3.43;;;3.23;;
13566;SDS011;6855;48.112;11.298;2022-07-29T08:27:20;2.50;;;2.30;;
13566;SDS011;6855;48.112;11.298;2022-07-29T08:29:47;3.70;;;2.70;;
13566;SDS011;6855;48.112;11.298;2022-07-29T08:32:14;2.30;;;2.20;;
13566;SDS011;6855;48.112;11.298;2022-07-29T08:34:42;2.50;;;2.30;;
13566;SDS011;6855;48.112;11.298;2022-07-29T08:37:12;2.20;;;2.10;;
13566;SDS011;6855;48.112;11.298;2022-07-29T08:39:39;2.10;;;2.00;;
13566;SDS011;6855;48.112;11.298;2022-07-29T08:42:06;1.97;;;1.87;;
13566;SDS011;6855;48.112;11.298;2022-07-29T08:44:34;2.23;;;2.07;;
13566;SDS011;6855;48.112;11.298;2022-07-29T08:47:02;2.40;;;2.03;;
13566;SDS011;6855;48.112;11.298;2022-07-29T08:49:30;2.20;;;2.10;;
13566;SDS011;6855;48.112;11.298;2022-07-29T08:51:57;2.00;;;1.90;;
13566;SDS011;6855;48.112;11.298;2022-07-29T08:54:26;4.30;;;2.40;;
13566;SDS011;6855;48.112;11.298;2022-07-29T08:56:54;3.47;;;2.13;;
13566;SDS011;6855;48.112;11.298;2022-07-29T08:59:21;2.00;;;1.90;;
13566;SDS011;6855;48.112;11.298;2022-07-29T09:01:49;2.17;;;2.00;;
13566;SDS011;6855;48.112;11.298;2022-07-29T09:04:19;2.10;;;2.00;;
13566;SDS011;6855;48.112;11.298;2022-07-29T09:06:47;3.80;;;2.20;;
13566;SDS011;6855;48.112;11.298;2022-07-29T09:09:14;2.23;;;2.13;;
13566;SDS011;6855;48.112;11.298;2022-07-29T09:11:43;1.70;;;1.60;;
13566;SDS011;6855;48.112;11.298;2022-07-29T09:14:11;2.30;;;2.07;;
13566;SDS011;6855;48.112;11.298;2022-07-29T09:16:45;2.57;;;1.90;;
13566;SDS011;6855;48.112;11.298;2022-07-29T09:19:23;4.80;;;2.00;;
13566;SDS011;6855;48.112;11.298;2022-07-29T09:21:51;2.20;;;2.00;;
13566;SDS011;6855;48.112;11.298;2022-07-29T09:24:24;2.80;;;2.43;;
13566;SDS011;6855;48.112;11.298;2022-07-29T09:26:53;2.73;;;2.53;;
13566;SDS011;6855;48.112;11.298;2022-07-29T09:29:23;4.13;;;2.10;;
13566;SDS011;6855;48.112;11.298;2022-07-29T09:31:52;3.80;;;2.30;;
13566;SDS011;6855;48.112;11.298;2022-07-29T09:34:23;3.20;;;2.90;;
13566;SDS011;6855;48.112;11.298;2022-07-29T09:36:51;3.13;;;2.03;;
13566;SDS011;6855;48.112;11.298;2022-07-29T09:39:28;2.00;;;1.90;;
13566;SDS011;6855;48.112;11.298;2022-07-29T09:41:57;3.07;;;2.03;;
13566;SDS011;6855;48.112;11.298;2022-07-29T09:44:25;2.90;;;2.60;;
13566;SDS011;6855;48.112;11.298;2022-07-29T09:46:55;6.73;;;2.43;;
13566;SDS011;6855;48.112;11.298;2022-07-29T09:49:23;2.00;;;1.80;;
13566;SDS011;6855;48.112;11.298;2022-07-29T09:52:01;4.37;;;2.20;;
13566;SDS011;6855;48.112;11.298;2022-07-29T09:54:30;4.30;;;2.30;;
13566;SDS011;6855;48.112;11.298;2022-07-29T09:57:03;3.20;;;2.37;;
13566;SDS011;6855;48.112;11.298;2022-07-29T09:59:30;2.57;;;2.23;;
13566;SDS011;6855;48.112;11.298;2022-07-29T10:01:58;2.40;;;2.20;;
13566;SDS011;6855;48.112;11.298;2022-07-29T10:04:36;2.30;;;2.10;;
13566;SDS011;6855;48.112;11.298;2022-07-29T10:07:03;2.60;;;2.40;;
13566;SDS011;6855;48.112;11.298;2022-07-29T10:09:31;3.50;;;2.80;;
13566;SDS011;6855;48.112;11.298;2022-07-29T10:12:07;2.10;;;2.00;;
13566;SDS011;6855;48.112;11.298;2022-07-29T10:14:36;4.10;;;2.57;;
13566;SDS011;6855;48.112;11.298;2022-07-29T10:17:03;7.77;;;2.90;;
13566;SDS011;6855;48.112;11.298;2022-07-29T10:19:31;2.40;;;2.23;;
13566;SDS011;6855;48.112;11.298;2022-07-29T10:21:59;3.77;;;2.50;;
13566;SDS011;6855;48.112;11.298;2022-07-29T10:24:27;2.50;;;2.33;;
13566;SDS011;6855;48.112;11.298;2022-07-29T10:26:55;4.70;;;2.30;;
13566;SDS011;6855;48.112;11.298;2022-07-29T10:29:24;7.33;;;2.90;;
13566;SDS011;6855;48.112;11.298;2022-07-29T10:31:54;6.27;;;2.50;;
13566;SDS011;6855;48.112;11.298;2022-07-29T10:34:23;2.57;;;2.30;;
13566;SDS011;6855;48.112;11.298;2022-07-29T10:36:54;2.87;;;2.67;;
13566;SDS011;6855;48.112;11.298;2022-07-29T10:39:30;2.27;;;2.13;;
13566;SDS011;6855;48.112;11.298;2022-07-29T10:42:02;2.43;;;2.23;;
13566;SDS011;6855;48.112;11.298;2022-07-29T10:44:34;4.10;;;2.90;;
13566;SDS011;6855;48.112;11.298;2022-07-29T10:47:01;2.37;;;2.17;;
13566;SDS011;6855;48.112;11.298;2022-07-29T10:49:29;4.20;;;2.47;;
13566;SDS011;6855;48.112;11.298;2022-07-29T10:52:00;2.60;;;2.40;;
13566;SDS011;6855;48.112;11.298;2022-07-29T10:54:37;3.97;;;2.50;;
13566;SDS011;6855;48.112;11.298;2022-07-29T10:57:18;2.80;;;2.60;;
13566;SDS011;6855;48.112;11.298;2022-07-29T10:59:48;2.43;;;2.20;;
13566;SDS011;6855;48.112;11.298;2022-07-29T11:05:02;3.63;;;2.80;;
13566;SDS011;6855;48.112;11.298;2022-07-29T11:07:31;3.20;;;2.90;;
13566;SDS011;6855;48.112;11.298;2022-07-29T11:12:45;4.87;;;2.77;;
13566;SDS011;6855;48.112;11.298;2022-07-29T11:15:14;3.03;;;2.83;;
13566;SDS011;6855;48.112;11.298;2022-07-29T11:23:18;2.70;;;2.60;;
13566;SDS011;6855;48.112;11.298;2022-07-29T11:25:46;7.00;;;2.90;;
13566;SDS011;6855;48.112;11.298;2022-07-29T11:28:33;5.33;;;2.90;;
13566;SDS011;6855;48.112;11.298;2022-07-29T11:31:02;3.93;;;3.13;;
13566;SDS011;6855;48.112;11.298;2022-07-29T11:33:31;3.40;;;2.80;;
13566;SDS011;6855;48.112;11.298;2022-07-29T11:36:08;4.30;;;2.70;;
13566;SDS011;6855;48.112;11.298;2022-07-29T11:38:36;2.87;;;2.77;;
13566;SDS011;6855;48.112;11.298;2022-07-29T11:41:22;3.53;;;3.23;;
13566;SDS011;6855;48.112;11.298;2022-07-29T11:43:49;6.37;;;2.77;;
13566;SDS011;6855;48.112;11.298;2022-07-29T11:46:19;3.50;;;3.00;;
13566;SDS011;6855;48.112;11.298;2022-07-29T11:49:06;3.40;;;2.63;;
13566;SDS011;6855;48.112;11.298;2022-07-29T11:51:34;5.20;;;2.70;;
13566;SDS011;6855;48.112;11.298;2022-07-29T11:54:01;2.97;;;2.70;;
13566;SDS011;6855;48.112;11.298;2022-07-29T11:56:29;5.00;;;2.20;;
13566;SDS011;6855;48.112;11.298;2022-07-29T11:59:02;6.10;;;2.80;;
13566;SDS011;6855;48.112;11.298;2022-07-29T12:01:32;8.10;;;2.73;;
13566;SDS011;6855;48.112;11.298;2022-07-29T12:04:03;3.07;;;2.77;;
13566;SDS011;6855;48.112;11.298;2022-07-29T12:06:31;2.60;;;2.40;;
13566;SDS011;6855;48.112;11.298;2022-07-29T12:08:58;5.27;;;3.03;;
13566;SDS011;6855;48.112;11.298;2022-07-29T12:11:26;5.43;;;3.30;;
13566;SDS011;6855;48.112;11.298;2022-07-29T12:13:53;3.20;;;2.70;;
13566;SDS011;6855;48.112;11.298;2022-07-29T12:16:21;2.80;;;2.60;;
13566;SDS011;6855;48.112;11.298;2022-07-29T12:18:56;2.70;;;2.50;;
13566;SDS011;6855;48.112;11.298;2022-07-29T12:21:23;2.60;;;2.40;;
13566;SDS011;6855;48.112;11.298;2022-07-29T12:23:53;2.73;;;2.47;;
13566;SDS011;6855;48.112;11.298;2022-07-29T12:26:21;3.00;;;2.80;;
13566;SDS011;6855;48.112;11.298;2022-07-29T12:28:48;3.13;;;2.93;;
13566;SDS011;6855;48.112;11.298;2022-07-29T12:31:16;2.63;;;2.43;;
13566;SDS011;6855;48.112;11.298;2022-07-29T12:33:43;3.60;;;2.70;;
13566;SDS011;6855;48.112;11.298;2022-07-29T12:36:20;6.47;;;2.63;;
13566;SDS011;6855;48.112;11.298;2022-07-29T12:38:47;4.60;;;2.50;;
13566;SDS011;6855;48.112;11.298;2022-07-29T12:41:14;5.10;;;3.10;;
13566;SDS011;6855;48.112;11.298;2022-07-29T12:43:51;2.83;;;2.60;;
13566;SDS011;6855;48.112;11.298;2022-07-29T12:46:18;2.90;;;2.70;;
13566;SDS011;6855;48.112;11.298;2022-07-29T12:48:49;2.57;;;2.37;;
13566;SDS011;6855;48.112;11.298;2022-07-29T12:51:25;3.03;;;2.80;;
13566;SDS011;6855;48.112;11.298;2022-07-29T12:54:02;3.10;;;2.83;;
13566;SDS011;6855;48.112;11.298;2022-07-29T12:56:29;4.30;;;2.77;;
13566;SDS011;6855;48.112;11.298;2022-07-29T12:58:57;2.90;;;2.70;;
13566;SDS011;6855;48.112;11.298;2022-07-29T13:01:24;3.00;;;2.20;;
13566;SDS011;6855;48.112;11.298;2022-07-29T13:03:53;7.50;;;2.50;;
13566;SDS011;6855;48.112;11.298;2022-07-29T13:06:30;4.30;;;2.70;;
13566;SDS011;6855;48.112;11.298;2022-07-29T13:08:58;10.33;;;2.40;;
13566;SDS011;6855;48.112;11.298;2022-07-29T13:11:27;11.27;;;2.90;;
13566;SDS011;6855;48.112;11.298;2022-07-29T13:13:54;11.00;;;2.90;;
13566;SDS011;6855;48.112;11.298;2022-07-29T13:16:21;5.53;;;2.70;;
13566;SDS011;6855;48.112;11.298;2022-07-29T13:19:02;5.00;;;2.57;;
13566;SDS011;6855;48.112;11.298;2022-07-29T13:21:30;3.20;;;2.77;;
13566;SDS011;6855;48.112;11.298;2022-07-29T13:23:58;2.70;;;2.50;;
13566;SDS011;6855;48.112;11.298;2022-07-29T13:26:25;5.20;;;2.50;;
13566;SDS011;6855;48.112;11.298;2022-07-29T13:28:53;3.33;;;2.50;;
13566;SDS011;6855;48.112;11.298;2022-07-29T13:31:20;2.60;;;2.40;;
13566;SDS011;6855;48.112;11.298;2022-07-29T13:33:47;7.00;;;2.43;;
13566;SDS011;6855;48.112;11.298;2022-07-29T13:36:15;3.33;;;2.30;;
13566;SDS011;6855;48.112;11.298;2022-07-29T13:38:43;3.50;;;2.30;;
13566;SDS011;6855;48.112;11.298;2022-07-29T13:41:11;3.83;;;2.40;;
13566;SDS011;6855;48.112;11.298;2022-07-29T13:43:38;2.77;;;2.57;;
13566;SDS011;6855;48.112;11.298;2022-07-29T13:46:05;3.97;;;2.47;;
13566;SDS011;6855;48.112;11.298;2022-07-29T13:48:33;2.57;;;2.27;;
13566;SDS011;6855;48.112;11.298;2022-07-29T13:51:00;2.53;;;2.33;;
13566;SDS011;6855;48.112;11.298;2022-07-29T13:53:28;3.93;;;2.63;;
13566;SDS011;6855;48.112;11.298;2022-07-29T13:55:56;9.30;;;2.83;;
13566;SDS011;6855;48.112;11.298;2022-07-29T13:58:23;3.80;;;2.63;;
13566;SDS011;6855;48.112;11.298;2022-07-29T14:00:51;4.20;;;2.53;;
13566;SDS011;6855;48.112;11.298;2022-07-29T14:03:18;2.93;;;2.50;;
13566;SDS011;6855;48.112;11.298;2022-07-29T14:05:45;6.47;;;3.17;;
13566;SDS011;6855;48.112;11.298;2022-07-29T14:08:12;2.90;;;2.23;;
13566;SDS011;6855;48.112;11.298;2022-07-29T14:10:40;4.40;;;2.20;;
13566;SDS011;6855;48.112;11.298;2022-07-29T14:13:08;6.50;;;2.53;;
13566;SDS011;6855;48.112;11.298;2022-07-29T14:15:36;3.80;;;2.60;;
13566;SDS011;6855;48.112;11.298;2022-07-29T14:18:03;3.13;;;2.43;;
13566;SDS011;6855;48.112;11.298;2022-07-29T14:20:30;7.37;;;3.20;;
13566;SDS011;6855;48.112;11.298;2022-07-29T14:22:58;4.00;;;2.93;;
13566;SDS011;6855;48.112;11.298;2022-07-29T14:25:25;3.67;;;2.83;;
13566;SDS011;6855;48.112;11.298;2022-07-29T14:27:52;2.33;;;2.13;;
13566;SDS011;6855;48.112;11.298;2022-07-29T14:30:21;3.20;;;2.03;;
13566;SDS011;6855;48.112;11.298;2022-07-29T14:32:48;2.10;;;1.90;;
13566;SDS011;6855;48.112;11.298;2022-07-29T14:35:15;2.67;;;2.10;;
13566;SDS011;6855;48.112;11.298;2022-07-29T14:37:42;2.33;;;2.13;;
13566;SDS011;6855;48.112;11.298;2022-07-29T14:40:10;2.30;;;2.10;;
13566;SDS011;6855;48.112;11.298;2022-07-29T14:42:37;8.63;;;2.70;;
13566;SDS011;6855;48.112;11.298;2022-07-29T14:45:05;8.73;;;2.93;;
13566;SDS011;6855;48.112;11.298;2022-07-29T14:47:34;4.13;;;2.50;;
13566;SDS011;6855;48.112;11.298;2022-07-29T14:50:01;3.10;;;2.63;;
13566;SDS011;6855;48.112;11.298;2022-07-29T14:52:29;6.30;;;3.03;;
13566;SDS011;6855;48.112;11.298;2022-07-29T14:54:56;4.63;;;2.53;;
13566;SDS011;6855;48.112;11.298;2022-07-29T14:57:23;8.03;;;2.30;;
13566;SDS011;6855;48.112;11.298;2022-07-29T14:59:51;4.17;;;2.70;;
13566;SDS011;6855;48.112;11.298;2022-07-29T15:02:18;8.73;;;2.33;;
13566;SDS011;6855;48.112;11.298;2022-07-29T15:04:46;2.50;;;2.30;;
13566;SDS011;6855;48.112;11.298;2022-07-29T15:07:14;2.77;;;2.40;;